Time;durP1;ratioP1;P1;durP2;ratioP2;P2;SDS_P1;SDS_P2;PMS_P1;PMS_P2;Temp;Humidity;BMP_temperature;BMP_pressure;BME280_temperature;BME280_humidity;BME280_pressure;Samples;Min_cycle;Max_cycle;Signal;HPM_P1;HPM_P2
2022/05/21 00:01:08;;;;;;;;;18.00;15.50;;;;;23.74;39.43;100068.48;110098;1266;18936;-48
2022/05/21 00:03:35;;;;;;;;;13.00;12.00;;;;;23.75;39.39;100068.91;110089;1267;19756;-48
2022/05/21 00:06:02;;;;;;;;;16.00;15.00;;;;;23.76;39.43;100065.15;110092;1266;18799;-48
2022/05/21 00:08:29;;;;;;;;;18.00;16.00;;;;;23.76;39.45;100059.52;110074;1265;19376;-50
2022/05/21 00:10:57;;;;;;;;;15.00;14.00;;;;;23.77;39.53;100057.02;110089;1267;19700;-49
2022/05/21 00:13:25;;;;;;;;;15.00;14.00;;;;;23.76;39.46;100060.35;110085;1267;22778;-44
2022/05/21 00:15:52;;;;;;;;;15.33;14.33;;;;;23.77;39.52;100058.83;110060;1267;18755;-49
2022/05/21 00:18:19;;;;;;;;;16.67;15.00;;;;;23.77;39.41;100054.58;110100;1266;19561;-48
2022/05/21 00:20:49;;;;;;;;;15.33;14.67;;;;;23.78;39.38;100053.77;110115;1266;18757;-54
2022/05/21 00:23:16;;;;;;;;;16.00;16.00;;;;;23.77;39.52;100045.78;110146;1267;22191;-49
2022/05/21 00:25:44;;;;;;;;;15.67;15.00;;;;;23.77;39.56;100036.52;110171;1265;19596;-48
2022/05/21 00:28:11;;;;;;;;;14.67;14.00;;;;;23.76;39.51;100038.71;110102;1267;19191;-51
2022/05/21 00:30:38;;;;;;;;;14.33;14.33;;;;;23.76;39.61;100043.55;110126;1268;18888;-51
2022/05/21 00:33:06;;;;;;;;;14.00;13.33;;;;;23.76;39.53;100039.51;110135;1267;21926;-51
2022/05/21 00:35:33;;;;;;;;;16.00;12.00;;;;;23.76;39.67;100038.34;110354;1262;19400;-49
2022/05/21 00:38:00;;;;;;;;;16.67;15.00;;;;;23.76;39.51;100027.98;110508;1261;22927;-47
2022/05/21 00:40:28;;;;;;;;;12.00;12.00;;;;;23.76;39.65;100025.20;110473;1260;20264;-50
2022/05/21 00:42:55;;;;;;;;;15.50;15.00;;;;;23.75;39.60;100021.46;110468;1261;18904;-49
2022/05/21 00:45:24;;;;;;;;;14.00;14.00;;;;;23.76;39.49;100014.00;110478;1261;18831;-51
2022/05/21 00:47:51;;;;;;;;;18.00;15.67;;;;;23.76;39.48;100011.73;110538;1260;20138;-50
2022/05/21 00:50:19;;;;;;;;;19.00;16.00;;;;;23.76;39.66;100008.79;110483;1261;18690;-50
2022/05/21 00:52:46;;;;;;;;;16.00;15.00;;;;;23.76;39.70;100006.22;110505;1260;19021;-49
2022/05/21 00:55:13;;;;;;;;;12.00;12.00;;;;;23.76;39.64;100004.63;110506;1260;19442;-50
2022/05/21 00:57:40;;;;;;;;;15.67;14.67;;;;;23.75;39.94;100000.79;110460;1261;22194;-50
2022/05/21 01:00:10;;;;;;;;;18.33;15.00;;;;;23.76;39.80;99989.13;110475;1260;18916;-47
2022/05/21 01:02:37;;;;;;;;;16.00;14.00;;;;;23.76;39.75;99982.19;110475;1261;21318;-48
2022/05/21 01:05:04;;;;;;;;;15.67;14.33;;;;;23.75;39.80;99979.59;110521;1261;18820;-51
2022/05/21 01:07:31;;;;;;;;;15.00;14.00;;;;;23.75;39.78;99977.64;110471;1260;18780;-50
2022/05/21 01:09:59;;;;;;;;;13.33;12.00;;;;;23.75;39.87;99975.33;110483;1261;19747;-50
2022/05/21 01:12:26;;;;;;;;;15.00;14.67;;;;;23.76;39.83;99974.48;110499;1260;22972;-49
2022/05/21 01:14:53;;;;;;;;;13.33;12.00;;;;;23.75;39.94;99972.77;110488;1261;18950;-50
2022/05/21 01:17:20;;;;;;;;;16.33;15.33;;;;;23.76;39.77;99966.10;110495;1261;19620;-50
2022/05/21 01:19:47;;;;;;;;;14.67;14.00;;;;;23.76;39.73;99956.42;110528;1260;20490;-50
2022/05/21 01:22:15;;;;;;;;;15.00;15.00;;;;;23.75;39.86;99948.17;110489;1261;18813;-50
2022/05/21 01:24:42;;;;;;;;;17.33;15.33;;;;;23.76;39.94;99946.70;110476;1262;19538;-52
2022/05/21 01:27:09;;;;;;;;;17.00;15.33;;;;;23.76;39.87;99941.64;110460;1260;18648;-49
2022/05/21 01:29:36;;;;;;;;;15.67;15.67;;;;;23.76;39.89;99931.45;110499;1262;18703;-50
2022/05/21 01:32:05;;;;;;;;;18.00;16.00;;;;;23.77;39.90;99922.40;110523;1260;19497;-50
2022/05/21 01:34:32;;;;;;;;;13.67;13.33;;;;;23.76;39.96;99924.52;110503;1260;21487;-49
2022/05/21 01:37:00;;;;;;;;;16.50;16.00;;;;;23.76;39.97;99922.83;110487;1261;18895;-49
2022/05/21 01:39:27;;;;;;;;;14.00;14.00;;;;;23.77;39.98;99928.71;110460;1259;21843;-50
2022/05/21 01:41:55;;;;;;;;;15.33;14.33;;;;;23.77;39.96;99939.62;110496;1261;19629;-50
2022/05/21 01:44:40;;;;;;;;;17.33;15.67;;;;;23.77;39.96;99929.38;110484;1260;21105;-50
2022/05/21 01:47:07;;;;;;;;;17.33;15.00;;;;;23.77;40.03;99922.66;110528;1261;21980;-50
2022/05/21 01:49:35;;;;;;;;;14.00;14.00;;;;;23.77;40.02;99932.25;110489;1260;19868;-50
2022/05/21 01:52:02;;;;;;;;;16.67;15.00;;;;;23.77;40.06;99933.97;110492;1260;19120;-50
2022/05/21 01:54:29;;;;;;;;;17.33;15.00;;;;;23.77;39.99;99933.59;110469;1260;19640;-48
2022/05/21 01:56:56;;;;;;;;;15.00;15.00;;;;;23.78;40.24;99933.38;110512;1259;20111;-51
2022/05/21 01:59:23;;;;;;;;;14.67;14.67;;;;;23.77;40.03;99932.17;110505;1260;18912;-49
2022/05/21 02:01:51;;;;;;;;;16.50;15.00;;;;;23.77;40.01;99924.84;110526;1262;19461;-49
2022/05/21 02:04:18;;;;;;;;;16.00;15.33;;;;;23.77;39.99;99924.92;110502;1260;22833;-48
2022/05/21 02:06:45;;;;;;;;;14.33;12.67;;;;;23.77;40.03;99920.34;110472;1261;18904;-49
2022/05/21 02:09:12;;;;;;;;;16.00;14.33;;;;;23.77;40.06;99921.60;110479;1261;19473;-51
2022/05/21 02:11:40;;;;;;;;;16.00;15.00;;;;;23.77;40.06;99923.80;110466;1261;20084;-48
2022/05/21 02:14:07;;;;;;;;;17.67;16.33;;;;;23.77;40.09;99929.30;110528;1262;18948;-50
2022/05/21 02:16:36;;;;;;;;;20.00;17.00;;;;;23.77;40.07;99919.92;110478;1260;19410;-48
2022/05/21 02:19:03;;;;;;;;;14.67;13.33;;;;;23.78;40.12;99914.35;110474;1262;18990;-51
2022/05/21 02:21:30;;;;;;;;;16.33;15.67;;;;;23.78;40.02;99919.41;110480;1262;18854;-50
2022/05/21 02:23:57;;;;;;;;;18.50;16.50;;;;;23.79;40.01;99921.32;110464;1260;22244;-49
2022/05/21 02:26:25;;;;;;;;;19.67;16.67;;;;;23.78;40.15;99918.91;110470;1261;18776;-50
2022/05/21 02:28:52;;;;;;;;;15.00;14.00;;;;;23.78;40.16;99916.67;110516;1261;18766;-49
2022/05/21 02:31:19;;;;;;;;;16.00;16.00;;;;;23.79;40.04;99912.98;110509;1260;19615;-50
2022/05/21 02:33:46;;;;;;;;;15.00;15.00;;;;;23.78;40.04;99911.55;110487;1261;20162;-50
2022/05/21 02:36:13;;;;;;;;;16.00;15.00;;;;;23.79;40.11;99904.23;110468;1260;18962;-50
2022/05/21 02:41:26;;;;;;;;;15.67;15.00;;;;;23.78;40.12;99886.99;110481;1261;18737;-51
2022/05/21 02:43:54;;;;;;;;;16.00;15.00;;;;;23.78;40.18;99880.59;110523;1260;18860;-49
2022/05/21 02:46:21;;;;;;;;;15.33;15.33;;;;;23.77;40.19;99879.63;110474;1261;19534;-50
2022/05/21 02:48:48;;;;;;;;;14.00;14.00;;;;;23.77;40.25;99875.38;110466;1260;23634;-50
2022/05/21 02:51:15;;;;;;;;;22.67;16.00;;;;;23.78;40.28;99870.45;110485;1261;18994;-50
2022/05/21 02:53:43;;;;;;;;;19.00;15.33;;;;;23.78;40.34;99870.75;110472;1262;19623;-53
2022/05/21 02:56:11;;;;;;;;;15.67;14.00;;;;;23.77;40.26;99868.30;110515;1260;22917;-50
2022/05/21 02:58:38;;;;;;;;;17.00;16.00;;;;;23.78;40.33;99864.05;110501;1261;22029;-51
2022/05/21 03:01:05;;;;;;;;;15.33;14.67;;;;;23.78;40.37;99860.15;110487;1261;19500;-50
2022/05/21 03:03:33;;;;;;;;;18.33;16.00;;;;;23.78;40.28;99859.13;110486;1259;18704;-49
2022/05/21 03:06:00;;;;;;;;;17.67;14.33;;;;;23.78;40.29;99857.79;110475;1261;18867;-49
2022/05/21 03:11:12;;;;;;;;;20.00;19.33;;;;;23.77;40.35;99850.75;110483;1260;18671;-52
2022/05/21 03:13:39;;;;;;;;;15.67;15.67;;;;;23.78;40.53;99842.37;110511;1261;18907;-49
2022/05/21 03:16:07;;;;;;;;;20.00;17.33;;;;;23.76;40.51;99828.38;110495;1261;19554;-45
2022/05/21 03:18:34;;;;;;;;;16.00;15.00;;;;;23.75;40.48;99821.85;110459;1261;18690;-50
2022/05/21 03:21:01;;;;;;;;;18.67;17.33;;;;;23.76;40.63;99819.28;110527;1261;18892;-48
2022/05/21 03:23:28;;;;;;;;;16.33;16.00;;;;;23.75;40.64;99815.88;110481;1260;19500;-51
2022/05/21 03:25:55;;;;;;;;;15.00;15.00;;;;;23.76;40.70;99814.19;110511;1261;18926;-50
2022/05/21 03:28:23;;;;;;;;;17.33;17.00;;;;;23.75;40.64;99808.21;110518;1260;18925;-49
2022/05/21 03:30:51;;;;;;;;;18.33;16.67;;;;;23.75;40.71;99804.64;110440;1260;21967;-49
2022/05/21 03:33:18;;;;;;;;;19.67;19.33;;;;;23.75;40.73;99807.00;110455;1261;18696;-50
2022/05/21 03:35:45;;;;;;;;;18.33;16.67;;;;;23.76;40.86;99814.73;110500;1260;18830;-49
2022/05/21 03:38:13;;;;;;;;;23.00;17.00;;;;;23.76;40.74;99804.63;110511;1260;19621;-54
2022/05/21 03:40:40;;;;;;;;;15.67;14.33;;;;;23.75;40.77;99801.81;110519;1261;18984;-50
2022/05/21 03:43:07;;;;;;;;;15.00;14.67;;;;;23.77;40.51;99804.87;110487;1261;18930;-49
2022/05/21 03:45:34;;;;;;;;;17.00;16.67;;;;;23.78;40.66;99790.42;110470;1260;19740;-51
2022/05/21 03:48:02;;;;;;;;;15.00;15.00;;;;;23.78;40.63;99798.85;110487;1261;18716;-49
2022/05/21 03:50:31;;;;;;;;;19.00;15.00;;;;;23.78;40.54;99797.46;110463;1261;18787;-50
2022/05/21 03:52:58;;;;;;;;;15.67;15.00;;;;;23.78;40.65;99795.57;110527;1261;19673;-49
2022/05/21 03:55:26;;;;;;;;;20.00;19.00;;;;;23.80;40.54;99801.05;110460;1262;21995;-48
2022/05/21 03:57:53;;;;;;;;;16.00;16.00;;;;;23.79;40.45;99803.61;110508;1261;19174;-49
2022/05/21 04:00:20;;;;;;;;;17.00;17.00;;;;;23.80;40.65;99803.77;110478;1259;19668;-49
2022/05/21 04:02:47;;;;;;;;;19.00;18.00;;;;;23.79;40.74;99800.33;110488;1260;18736;-49
2022/05/21 04:05:14;;;;;;;;;19.00;17.00;;;;;23.80;40.64;99799.19;110511;1259;19193;-50
2022/05/21 04:07:42;;;;;;;;;21.33;18.00;;;;;23.81;40.59;99801.08;110521;1260;22238;-50
2022/05/21 04:10:09;;;;;;;;;17.33;16.33;;;;;23.81;40.54;99801.19;110487;1260;22807;-52
2022/05/21 04:12:36;;;;;;;;;19.67;18.67;;;;;23.81;40.69;99795.84;110470;1261;18917;-50
2022/05/21 04:15:03;;;;;;;;;20.50;19.50;;;;;23.81;40.85;99796.44;110493;1261;19739;-49
2022/05/21 04:17:31;;;;;;;;;21.00;19.50;;;;;23.80;40.75;99793.46;110478;1260;20205;-49
2022/05/21 04:19:58;;;;;;;;;19.00;17.00;;;;;23.80;40.73;99802.17;110528;1262;19702;-50
2022/05/21 04:22:25;;;;;;;;;19.00;18.33;;;;;23.81;40.50;99797.32;110497;1260;19540;-50
2022/05/21 04:24:52;;;;;;;;;16.67;16.33;;;;;23.81;41.01;99804.27;110511;1261;20093;-50
2022/05/21 04:27:20;;;;;;;;;17.67;16.33;;;;;23.81;41.08;99803.05;110485;1261;21348;-49
2022/05/21 04:29:47;;;;;;;;;21.00;20.00;;;;;23.79;41.26;99812.20;110497;1260;19467;-49
2022/05/21 04:32:14;;;;;;;;;19.00;17.00;;;;;23.79;41.61;99815.73;110530;1262;18694;-52
2022/05/21 04:34:42;;;;;;;;;19.67;19.00;;;;;23.78;41.53;99827.01;110508;1260;18870;-50
2022/05/21 04:37:09;;;;;;;;;19.00;18.33;;;;;23.78;41.66;99831.71;110478;1260;22357;-51
2022/05/21 04:39:36;;;;;;;;;17.00;16.33;;;;;23.78;41.66;99836.65;110480;1260;18731;-50
2022/05/21 04:42:03;;;;;;;;;22.50;20.00;;;;;23.77;41.67;99839.39;110462;1261;18757;-48
2022/05/21 04:44:34;;;;;;;;;16.00;16.00;;;;;23.77;41.68;99842.63;110443;1261;20166;-49
2022/05/21 04:47:02;;;;;;;;;18.00;17.00;;;;;23.77;41.91;99843.30;110541;1261;18912;-47
2022/05/21 04:49:30;;;;;;;;;17.00;17.00;;;;;23.78;41.91;99848.02;110461;1260;18833;-50
2022/05/21 04:51:57;;;;;;;;;18.00;17.50;;;;;23.78;41.80;99856.10;110497;1260;19934;-49
2022/05/21 04:54:24;;;;;;;;;19.33;19.33;;;;;23.78;41.89;99850.50;110495;1261;19457;-49
2022/05/21 04:56:51;;;;;;;;;20.00;19.00;;;;;23.78;41.86;99842.45;110475;1261;22820;-49
2022/05/21 04:59:19;;;;;;;;;21.33;20.00;;;;;23.78;42.03;99850.09;110478;1260;21917;-52
2022/05/21 05:01:46;;;;;;;;;21.00;20.00;;;;;23.79;42.00;99858.77;110549;1261;18787;-49
2022/05/21 05:04:13;;;;;;;;;20.00;17.00;;;;;23.80;41.98;99858.36;110480;1261;18750;-49
2022/05/21 05:06:40;;;;;;;;;18.67;17.00;;;;;23.82;41.72;99858.56;110471;1260;22256;-50
2022/05/21 05:09:08;;;;;;;;;18.00;17.33;;;;;23.81;41.98;99858.60;110483;1261;22570;-51
2022/05/21 05:11:35;;;;;;;;;16.00;16.00;;;;;23.81;42.07;99865.43;110493;1260;18911;-50
2022/05/21 05:14:02;;;;;;;;;20.33;20.00;;;;;23.81;42.08;99863.58;110537;1260;19530;-50
2022/05/21 05:16:29;;;;;;;;;17.67;16.00;;;;;23.81;42.17;99866.31;110478;1261;18659;-50
2022/05/21 05:18:57;;;;;;;;;17.00;17.00;;;;;23.81;42.08;99869.94;110523;1260;19087;-50
2022/05/21 05:21:24;;;;;;;;;18.00;18.00;;;;;23.81;42.21;99874.81;110515;1261;19648;-50
2022/05/21 05:23:52;;;;;;;;;16.33;15.33;;;;;23.81;42.36;99875.45;110464;1261;18890;-50
2022/05/21 05:26:19;;;;;;;;;20.00;20.00;;;;;23.81;42.31;99874.31;110494;1262;20554;-51
2022/05/21 05:28:46;;;;;;;;;15.33;15.33;;;;;23.81;42.26;99876.88;110472;1261;19804;-50
2022/05/21 05:31:13;;;;;;;;;20.00;17.00;;;;;23.81;42.33;99877.85;110481;1261;18876;-50
2022/05/21 05:33:41;;;;;;;;;17.00;17.00;;;;;23.81;42.28;99882.19;110476;1261;18786;-52
2022/05/21 05:36:08;;;;;;;;;14.00;14.00;;;;;23.80;42.40;99885.02;110480;1261;19887;-49
2022/05/21 05:38:35;;;;;;;;;15.00;15.00;;;;;23.80;42.46;99890.83;110456;1261;20127;-52
2022/05/21 05:41:03;;;;;;;;;16.50;15.50;;;;;23.80;42.32;99891.74;110359;1261;222680;-50
2022/05/21 05:43:30;;;;;;;;;16.50;16.00;;;;;23.81;42.39;99890.95;110486;1261;19499;-48
2022/05/21 05:45:58;;;;;;;;;17.00;16.00;;;;;23.81;42.39;99894.23;110450;1262;23020;-49
2022/05/21 05:48:25;;;;;;;;;15.00;14.67;;;;;23.80;42.47;99896.89;110477;1261;19085;-51
2022/05/21 05:50:53;;;;;;;;;15.00;15.00;;;;;23.80;42.58;99905.64;110454;1261;19596;-50
2022/05/21 05:53:20;;;;;;;;;17.33;15.33;;;;;23.80;42.50;99908.80;110483;1261;18723;-50
2022/05/21 05:55:48;;;;;;;;;16.33;15.33;;;;;23.80;42.56;99914.23;110524;1261;18800;-50
2022/05/21 06:01:00;;;;;;;;;16.00;14.33;;;;;23.80;42.55;99929.60;110460;1261;18729;-48
2022/05/21 06:03:27;;;;;;;;;15.00;14.00;;;;;23.80;42.63;99930.15;110497;1261;20144;-48
2022/05/21 06:05:54;;;;;;;;;12.00;12.00;;;;;23.80;42.62;99937.46;110474;1261;23165;-52
2022/05/21 06:08:22;;;;;;;;;14.00;14.00;;;;;23.80;42.50;99940.71;110469;1261;18866;-50
2022/05/21 06:10:49;;;;;;;;;12.00;12.00;;;;;23.79;42.64;99942.98;110519;1262;18853;-48
2022/05/21 06:13:17;;;;;;;;;14.00;14.00;;;;;23.80;42.52;99939.61;110491;1261;19527;-50
2022/05/21 06:15:49;;;;;;;;;14.00;13.00;;;;;23.79;42.55;99948.80;110449;1261;18828;-51
2022/05/21 06:18:16;;;;;;;;;12.00;12.00;;;;;23.79;42.60;99949.27;110467;1261;18895;-49
2022/05/21 06:20:44;;;;;;;;;12.00;11.00;;;;;23.78;42.55;99939.84;110438;1262;22185;-51
2022/05/21 06:23:12;;;;;;;;;11.00;11.00;;;;;23.79;42.36;99941.43;110493;1261;19331;-50
2022/05/21 06:25:39;;;;;;;;;12.00;11.00;;;;;23.79;42.54;99939.20;110427;1261;18727;-50
2022/05/21 06:28:07;;;;;;;;;11.00;10.00;;;;;23.79;42.58;99950.82;110412;1261;19662;-51
2022/05/21 06:30:34;;;;;;;;;12.00;12.00;;;;;23.80;42.58;99956.76;110295;1262;18753;-48
2022/05/21 06:33:01;;;;;;;;;11.50;11.00;;;;;23.81;42.38;99946.10;110440;1262;18942;-50
2022/05/21 06:35:29;;;;;;;;;11.00;11.00;;;;;23.80;42.47;99952.55;110494;1261;19551;-49
2022/05/21 06:37:56;;;;;;;;;11.00;10.50;;;;;23.81;42.32;99962.34;110516;1262;18983;-50
2022/05/21 06:40:24;;;;;;;;;11.00;11.00;;;;;23.80;42.40;99959.61;110496;1261;18759;-50
2022/05/21 06:42:51;;;;;;;;;11.50;11.00;;;;;23.81;42.33;99961.16;110452;1261;19723;-45
2022/05/21 06:45:18;;;;;;;;;11.00;10.50;;;;;23.82;42.32;99960.14;110442;1261;18631;-51
2022/05/21 06:47:45;;;;;;;;;8.00;8.00;;;;;23.82;42.19;99956.27;110466;1261;18930;-50
2022/05/21 06:50:13;;;;;;;;;11.00;11.00;;;;;23.82;42.10;99966.29;110550;1261;21106;-47
2022/05/21 06:52:40;;;;;;;;;8.67;8.67;;;;;23.82;42.17;99964.27;110479;1261;19440;-53
2022/05/21 06:55:08;;;;;;;;;10.00;10.00;;;;;23.82;41.99;99977.95;110464;1260;19103;-51
2022/05/21 06:57:35;;;;;;;;;10.00;10.00;;;;;23.82;42.05;99977.07;110449;1261;21943;-51
2022/05/21 07:00:02;;;;;;;;;10.50;9.00;;;;;23.82;42.02;99985.45;110494;1261;18644;-49
2022/05/21 07:02:30;;;;;;;;;10.00;10.00;;;;;23.82;41.91;99978.04;110492;1260;18886;-50
2022/05/21 07:07:45;;;;;;;;;6.00;6.00;;;;;23.74;41.44;99993.36;110485;1260;18698;-49
2022/05/21 07:10:12;;;;;;;;;6.00;5.33;;;;;23.56;41.34;99998.25;110454;1261;22873;-51
2022/05/21 07:12:40;;;;;;;;;6.00;5.00;;;;;23.37;41.26;99998.23;110471;1262;19366;-50
2022/05/21 07:15:08;;;;;;;;;6.00;5.00;;;;;23.27;41.29;99995.33;110489;1258;18639;-50
2022/05/21 07:17:35;;;;;;;;;6.00;6.00;;;;;23.22;41.31;100009.29;110532;1259;18684;-51
2022/05/21 07:20:02;;;;;;;;;6.00;6.00;;;;;23.17;41.19;100008.83;110501;1259;19662;-49
2022/05/21 07:22:30;;;;;;;;;6.00;5.00;;;;;23.11;41.41;100006.81;110474;1260;19129;-50
2022/05/21 07:24:59;;;;;;;;;6.00;5.33;;;;;23.07;41.14;100007.28;110427;1261;18702;-51
2022/05/21 07:27:26;;;;;;;;;5.00;5.00;;;;;23.07;41.01;100013.13;110477;1261;20203;-49
2022/05/21 07:29:53;;;;;;;;;3.00;3.00;;;;;23.06;40.91;100014.92;110500;1260;18319;-50
2022/05/21 07:32:21;;;;;;;;;5.67;5.67;;;;;23.03;40.89;100018.67;110521;1261;22942;-50
2022/05/21 07:34:48;;;;;;;;;6.00;5.00;;;;;22.98;40.93;100025.98;110515;1260;19781;-51
2022/05/21 07:37:15;;;;;;;;;5.00;5.00;;;;;22.92;41.07;100030.10;110463;1261;18375;-50
2022/05/21 07:39:42;;;;;;;;;5.00;5.00;;;;;22.90;41.16;100032.04;110443;1261;18602;-50
2022/05/21 07:42:10;;;;;;;;;3.00;3.00;;;;;22.91;41.31;100036.45;110484;1261;22559;-49
2022/05/21 07:44:37;;;;;;;;;3.00;3.00;;;;;22.96;41.34;100031.28;110481;1260;18598;-47
2022/05/21 07:47:04;;;;;;;;;4.33;4.33;;;;;22.98;41.58;100041.87;110531;1261;19719;-49
2022/05/21 07:49:32;;;;;;;;;4.00;4.00;;;;;23.07;41.35;100042.90;110487;1260;19489;-50
2022/05/21 07:51:59;;;;;;;;;4.33;4.33;;;;;23.22;41.26;100049.38;110441;1260;18348;-51
2022/05/21 07:54:26;;;;;;;;;5.00;5.00;;;;;23.36;40.96;100047.65;110493;1261;22248;-50
2022/05/21 07:56:53;;;;;;;;;3.00;3.00;;;;;23.44;40.85;100057.45;110513;1261;19683;-50
2022/05/21 07:59:21;;;;;;;;;3.00;3.00;;;;;23.51;40.73;100063.30;110508;1262;18609;-52
2022/05/21 08:01:48;;;;;;;;;3.00;3.00;;;;;23.54;40.64;100058.96;110536;1261;18755;-48
2022/05/21 08:04:17;;;;;;;;;3.00;3.00;;;;;23.58;40.48;100061.95;110494;1261;22364;-50
2022/05/21 08:06:44;;;;;;;;;3.00;3.00;;;;;23.60;40.48;100063.79;110454;1261;18517;-49
2022/05/21 08:09:11;;;;;;;;;5.00;4.00;;;;;23.62;40.57;100068.91;110501;1261;18665;-50
2022/05/21 08:11:38;;;;;;;;;3.00;3.00;;;;;23.64;40.31;100064.03;110515;1261;19557;-49
2022/05/21 08:14:06;;;;;;;;;5.33;5.33;;;;;23.67;40.43;100072.91;110544;1262;19053;-50
2022/05/21 08:16:33;;;;;;;;;3.67;3.67;;;;;23.69;40.65;100073.54;110490;1260;18661;-52
2022/05/21 08:19:01;;;;;;;;;5.00;3.00;;;;;23.72;40.60;100070.97;110462;1261;19664;-51
2022/05/21 08:21:29;;;;;;;;;3.00;3.00;;;;;23.74;40.47;100067.82;110495;1260;18423;-49
2022/05/21 08:27:01;;;;;;;;;5.00;4.00;;;;;23.76;40.53;100081.48;110466;1262;19360;-53
2022/05/21 08:29:29;;;;;;;;;3.00;3.00;;;;;23.76;40.55;100066.16;110466;1260;19269;-49
2022/05/21 08:31:56;;;;;;;;;3.00;3.00;;;;;23.77;40.55;100081.98;110495;1262;18760;-49
2022/05/21 08:34:23;;;;;;;;;5.00;3.00;;;;;23.76;40.62;100083.89;110509;1261;19774;-50
2022/05/21 08:36:50;;;;;;;;;2.67;2.67;;;;;23.76;40.63;100090.54;110482;1260;18487;-51
2022/05/21 08:39:18;;;;;;;;;2.67;2.67;;;;;23.76;40.62;100102.28;110521;1262;18714;-50
2022/05/21 08:41:46;;;;;;;;;3.00;3.00;;;;;23.77;40.50;100095.80;110499;1259;22169;-50
2022/05/21 08:44:13;;;;;;;;;3.00;3.00;;;;;23.76;40.58;100107.20;110495;1260;18460;-52
2022/05/21 08:46:42;;;;;;;;;3.67;3.67;;;;;23.75;40.72;100109.90;110461;1261;18872;-53
2022/05/21 08:49:09;;;;;;;;;3.67;3.67;;;;;23.76;40.63;100118.95;110500;1261;19487;-52
2022/05/21 08:51:36;;;;;;;;;3.00;3.00;;;;;23.75;40.57;100121.05;110515;1260;18473;-51
2022/05/21 08:54:04;;;;;;;;;4.33;4.33;;;;;23.75;40.59;100113.06;110518;1261;18752;-49
2022/05/21 08:56:31;;;;;;;;;3.00;3.00;;;;;23.75;40.66;100124.00;110480;1260;19820;-50
2022/05/21 08:58:58;;;;;;;;;3.00;3.00;;;;;23.76;40.66;100138.52;110507;1261;18595;-49
2022/05/21 09:01:25;;;;;;;;;3.00;3.00;;;;;23.75;40.57;100142.45;110492;1261;18867;-51
2022/05/21 09:03:53;;;;;;;;;3.00;3.00;;;;;23.76;40.68;100153.98;110498;1261;19896;-49
2022/05/21 09:06:20;;;;;;;;;5.00;3.00;;;;;23.75;40.53;100157.73;110513;1261;18430;-50
2022/05/21 09:08:48;;;;;;;;;3.00;3.00;;;;;23.75;40.60;100155.75;110519;1259;18724;-50
2022/05/21 09:11:15;;;;;;;;;5.00;3.00;;;;;23.76;40.52;100169.73;110502;1260;19605;-49
2022/05/21 09:13:44;;;;;;;;;5.00;5.00;;;;;23.75;40.44;100169.39;110474;1261;18533;-49
2022/05/21 09:18:56;;;;;;;;;3.00;3.00;;;;;23.75;40.39;100188.55;110522;1262;19529;-50
2022/05/21 09:21:23;;;;;;;;;5.00;5.00;;;;;23.75;40.24;100188.20;110498;1261;18999;-50
2022/05/21 09:23:51;;;;;;;;;5.00;3.00;;;;;23.76;40.20;100201.42;110513;1260;18735;-50
2022/05/21 09:26:18;;;;;;;;;4.33;4.33;;;;;23.76;40.28;100201.42;110515;1261;19627;-50
2022/05/21 09:28:45;;;;;;;;;5.00;3.00;;;;;23.76;40.40;100210.52;110490;1260;18894;-51
2022/05/21 09:31:12;;;;;;;;;3.00;3.00;;;;;23.76;40.14;100217.41;110521;1260;20181;-50
2022/05/21 09:33:40;;;;;;;;;3.00;2.33;;;;;23.77;40.29;100228.45;110504;1260;19537;-51
2022/05/21 09:36:07;;;;;;;;;3.00;3.00;;;;;23.77;40.27;100224.77;110499;1260;18433;-49
2022/05/21 09:38:35;;;;;;;;;3.00;2.67;;;;;23.76;40.18;100226.30;110501;1261;18709;-50
2022/05/21 09:41:03;;;;;;;;;4.33;2.67;;;;;23.77;40.18;100228.95;110524;1261;19355;-51
2022/05/21 09:46:15;;;;;;;;;3.00;3.00;;;;;23.79;40.09;100234.23;110487;1261;18821;-51
2022/05/21 09:48:42;;;;;;;;;2.67;2.67;;;;;23.80;40.10;100230.45;110472;1261;19774;-52
2022/05/21 09:51:09;;;;;;;;;2.00;2.00;;;;;23.79;39.98;100235.02;110480;1260;18607;-49
2022/05/21 09:53:37;;;;;;;;;3.00;3.00;;;;;23.79;39.94;100244.59;110465;1261;18780;-50
2022/05/21 09:56:05;;;;;;;;;5.33;4.33;;;;;23.79;39.99;100242.06;110571;1261;19559;-50
2022/05/21 09:58:33;;;;;;;;;2.00;2.00;;;;;23.79;40.09;100243.88;110489;1260;19838;-51
2022/05/21 10:01:00;;;;;;;;;3.00;3.00;;;;;23.79;39.90;100227.59;110498;1261;18694;-50
2022/05/21 10:03:27;;;;;;;;;3.00;3.00;;;;;23.80;40.00;100237.39;110470;1261;19804;-47
2022/05/21 10:05:54;;;;;;;;;3.00;3.00;;;;;23.79;39.87;100247.66;110480;1261;18728;-51
2022/05/21 10:11:18;;;;;;;;;3.00;3.00;;;;;23.78;39.72;100265.29;110288;1265;19800;-52
2022/05/21 10:13:45;;;;;;;;;2.67;2.67;;;;;23.79;39.81;100268.70;110200;1264;18685;-50
2022/05/21 10:16:14;;;;;;;;;2.00;2.00;;;;;23.79;39.75;100284.58;110290;1265;20015;-50
2022/05/21 10:18:42;;;;;;;;;2.00;2.00;;;;;23.78;39.79;100287.57;110226;1265;22968;-50
2022/05/21 10:21:09;;;;;;;;;5.67;5.67;;;;;23.78;39.72;100297.79;110227;1264;18636;-49
2022/05/21 10:23:36;;;;;;;;;3.00;3.00;;;;;23.78;39.73;100304.53;110254;1264;22075;-51
2022/05/21 10:26:04;;;;;;;;;3.00;3.00;;;;;23.78;39.78;100307.64;110285;1264;19821;-51
2022/05/21 10:28:31;;;;;;;;;3.00;3.00;;;;;23.78;39.65;100298.89;110274;1264;18452;-50
2022/05/21 10:30:58;;;;;;;;;3.00;3.00;;;;;23.78;39.71;100306.71;110263;1265;18745;-54
2022/05/21 10:33:26;;;;;;;;;2.00;2.00;;;;;23.79;39.64;100308.32;110214;1264;20941;-50
2022/05/21 10:35:56;;;;;;;;;5.00;3.00;;;;;23.80;39.58;100318.02;110231;1264;19007;-50
2022/05/21 10:38:23;;;;;;;;;2.00;2.00;;;;;23.80;39.48;100318.21;110250;1264;22974;-50
2022/05/21 10:40:50;;;;;;;;;3.00;3.00;;;;;23.80;39.42;100325.21;110244;1264;19522;-49
2022/05/21 10:43:17;;;;;;;;;2.00;2.00;;;;;23.79;39.40;100325.17;110256;1264;20684;-50
2022/05/21 10:45:45;;;;;;;;;2.00;2.00;;;;;23.79;39.34;100336.20;110308;1262;18796;-51
2022/05/21 10:48:12;;;;;;;;;2.00;2.00;;;;;23.79;39.40;100341.59;110478;1261;19527;-51
2022/05/21 10:50:39;;;;;;;;;3.00;2.00;;;;;23.79;39.42;100345.67;110487;1260;18475;-51
2022/05/21 10:53:07;;;;;;;;;3.00;2.67;;;;;23.79;39.33;100355.10;110552;1261;18764;-50
2022/05/21 10:55:34;;;;;;;;;2.00;2.00;;;;;23.79;39.38;100346.34;110510;1261;19371;-51
2022/05/21 10:58:01;;;;;;;;;2.00;2.00;;;;;23.79;39.40;100347.36;110491;1260;22326;-50
2022/05/21 11:00:28;;;;;;;;;2.67;2.67;;;;;23.79;39.43;100359.14;110468;1261;18735;-52
2022/05/21 11:02:56;;;;;;;;;2.00;2.00;;;;;23.80;39.30;100364.23;110472;1261;19669;-51
2022/05/21 11:05:24;;;;;;;;;1.67;1.67;;;;;23.80;39.32;100365.96;110538;1261;18687;-51
2022/05/21 11:07:51;;;;;;;;;3.00;3.00;;;;;23.80;39.30;100361.55;110514;1261;19238;-50
2022/05/21 11:10:18;;;;;;;;;5.00;3.67;;;;;23.80;39.22;100361.16;110477;1261;19532;-49
2022/05/21 11:12:45;;;;;;;;;5.00;3.00;;;;;23.80;39.27;100361.71;110475;1261;18754;-50
2022/05/21 11:15:13;;;;;;;;;2.00;2.00;;;;;23.80;39.13;100371.27;110479;1261;18949;-51
2022/05/21 11:17:40;;;;;;;;;3.00;3.00;;;;;23.80;39.20;100373.46;110503;1261;19526;-51
2022/05/21 11:20:11;;;;;;;;;3.00;3.00;;;;;23.79;39.15;100381.55;110549;1261;18617;-50
2022/05/21 11:22:38;;;;;;;;;2.00;2.00;;;;;23.79;39.19;100388.45;110494;1261;18621;-51
2022/05/21 11:25:06;;;;;;;;;3.00;3.00;;;;;23.79;39.11;100392.48;110500;1260;19831;-50
2022/05/21 11:27:34;;;;;;;;;3.00;3.00;;;;;23.79;39.28;100395.44;110487;1262;18754;-49
2022/05/21 11:30:02;;;;;;;;;2.00;2.00;;;;;23.79;39.17;100403.30;110478;1260;19138;-52
2022/05/21 11:37:59;;;;;;;;;3.00;3.00;;;;;23.79;39.22;100406.05;110528;1261;22248;-51
2022/05/21 11:40:26;;;;;;;;;2.00;2.00;;;;;23.80;39.22;100403.17;110483;1261;20102;-51